Time;durP1;ratioP1;P1;durP2;ratioP2;P2;SDS_P1;SDS_P2;PMS_P1;PMS_P2;Temp;Humidity;BMP_temperature;BMP_pressure;BME280_temperature;BME280_humidity;BME280_pressure;Samples;Min_cycle;Max_cycle;Signal;HPM_P1;HPM_P2
2022/12/19 00:02:14;;;;;;;68.43;41.05;;;22.10;32.10;;;;;;6063711;28;84319;-63
2022/12/19 00:05:14;;;;;;;67.78;41.88;;;22.10;31.90;;;;;;6070837;28;84761;-63
2022/12/19 00:08:18;;;;;;;71.40;43.20;;;22.00;31.70;;;;;;6065121;28;83611;-63
2022/12/19 00:11:18;;;;;;;68.30;42.40;;;22.00;31.70;;;;;;6068116;28;83087;-63
2022/12/19 00:14:19;;;;;;;68.45;42.30;;;21.90;31.80;;;;;;6053507;28;83440;-63
2022/12/19 00:17:19;;;;;;;66.28;40.30;;;21.90;31.90;;;;;;6053204;28;83464;-59
2022/12/19 00:20:20;;;;;;;72.47;41.75;;;21.90;32.20;;;;;;6071637;28;83949;-59
2022/12/19 00:23:20;;;;;;;63.38;40.10;;;21.80;32.30;;;;;;6060863;28;82936;-59
2022/12/19 00:26:21;;;;;;;65.30;39.75;;;21.80;32.50;;;;;;6068469;28;83300;-59
2022/12/19 00:29:22;;;;;;;63.67;38.08;;;21.80;33.40;;;;;;6066021;28;84193;-59
2022/12/19 00:32:22;;;;;;;59.30;38.00;;;21.70;32.60;;;;;;6055658;28;83034;-59
2022/12/19 00:35:23;;;;;;;58.58;36.55;;;21.70;33.30;;;;;;6057126;28;83695;-59
2022/12/19 00:38:23;;;;;;;58.10;35.70;;;21.70;32.80;;;;;;6063495;28;83240;-59
2022/12/19 00:41:24;;;;;;;62.97;38.00;;;21.70;33.00;;;;;;6075576;28;84265;-59
2022/12/19 00:44:24;;;;;;;57.65;35.78;;;21.70;33.10;;;;;;6074423;28;83516;-60
2022/12/19 00:47:26;;;;;;;56.60;34.72;;;21.70;33.10;;;;;;6075897;28;84316;-59
2022/12/19 00:50:27;;;;;;;58.92;35.40;;;21.70;33.20;;;;;;6077152;28;86191;-59
2022/12/19 00:53:27;;;;;;;57.67;35.28;;;21.70;34.00;;;;;;6074827;28;84186;-63
2022/12/19 00:56:28;;;;;;;54.50;33.47;;;21.60;33.20;;;;;;6065989;28;83135;-62
2022/12/19 00:59:28;;;;;;;57.22;35.33;;;21.60;33.20;;;;;;6066713;28;86682;-63
2022/12/19 01:02:30;;;;;;;58.03;35.58;;;21.60;33.30;;;;;;6074618;28;85752;-61
2022/12/19 01:05:30;;;;;;;55.47;34.70;;;21.60;33.00;;;;;;6078724;28;83460;-62
2022/12/19 01:08:31;;;;;;;56.78;33.70;;;21.60;33.00;;;;;;6055653;28;84341;-62
2022/12/19 01:14:52;;;;;;;56.92;34.42;;;21.50;32.90;;;;;;6052972;28;83263;-61
2022/12/19 01:17:52;;;;;;;54.25;33.03;;;21.50;32.70;;;;;;6058161;28;85510;-64
2022/12/19 01:20:53;;;;;;;55.92;34.63;;;21.50;32.60;;;;;;6075585;28;84476;-64
2022/12/19 01:23:53;;;;;;;56.00;34.75;;;21.50;32.50;;;;;;6058563;28;83157;-65
2022/12/19 01:26:54;;;;;;;59.03;35.22;;;21.50;32.40;;;;;;6078467;28;84483;-63
2022/12/19 01:29:54;;;;;;;55.70;34.63;;;21.50;32.40;;;;;;6051034;28;83181;-63
2022/12/19 01:32:55;;;;;;;61.28;36.40;;;21.50;32.40;;;;;;6051761;28;84232;-63
2022/12/19 01:35:55;;;;;;;60.85;35.80;;;21.40;32.20;;;;;;6056613;28;83251;-64
2022/12/19 01:38:56;;;;;;;63.10;37.25;;;21.40;32.30;;;;;;6068524;28;83227;-64
2022/12/19 01:41:56;;;;;;;61.10;36.17;;;21.40;32.30;;;;;;6058596;28;83079;-65
2022/12/19 01:44:57;;;;;;;62.33;37.13;;;21.40;32.10;;;;;;6055671;28;83805;-65
2022/12/19 01:47:57;;;;;;;63.83;38.63;;;21.30;32.30;;;;;;6055559;28;83245;-64
2022/12/19 01:50:58;;;;;;;63.58;37.65;;;21.30;32.20;;;;;;6062945;28;83634;-64
2022/12/19 01:53:58;;;;;;;68.70;38.17;;;21.30;32.00;;;;;;6075785;28;84849;-65
2022/12/19 01:56:59;;;;;;;68.07;40.25;;;21.30;32.00;;;;;;6072076;28;84694;-64
2022/12/19 02:00:03;;;;;;;70.57;41.60;;;21.30;31.90;;;;;;6086049;28;85721;-63
2022/12/19 02:03:12;;;;;;;75.13;41.92;;;21.30;32.30;;;;;;6057180;28;82906;-64
2022/12/19 02:06:17;;;;;;;74.30;42.00;;;21.30;31.80;;;;;;6075803;28;86612;-65
2022/12/19 02:09:17;;;;;;;73.07;41.05;;;21.20;31.80;;;;;;6079654;28;86365;-64
2022/12/19 02:12:18;;;;;;;77.70;43.25;;;21.20;31.70;;;;;;6071480;28;85279;-63
2022/12/19 02:15:18;;;;;;;74.53;42.90;;;21.20;31.60;;;;;;6070743;28;85153;-62
2022/12/19 02:18:20;;;;;;;75.43;42.67;;;21.20;31.50;;;;;;6071941;28;89316;-64
2022/12/19 02:21:21;;;;;;;77.95;43.22;;;21.20;31.70;;;;;;6071662;28;85374;-63
2022/12/19 02:24:22;;;;;;;75.85;43.92;;;21.20;31.60;;;;;;6070549;28;86770;-65
2022/12/19 02:27:23;;;;;;;77.63;45.42;;;21.20;31.40;;;;;;6078854;28;84695;-63
2022/12/19 02:30:25;;;;;;;75.50;43.80;;;21.20;31.50;;;;;;6081568;28;86143;-62
2022/12/19 02:33:26;;;;;;;79.30;45.33;;;21.20;31.50;;;;;;6089034;28;86008;-61
2022/12/19 02:36:27;;;;;;;82.55;44.97;;;21.10;31.50;;;;;;6077225;28;82894;-62
2022/12/19 02:39:27;;;;;;;80.22;44.55;;;21.10;31.40;;;;;;6091204;28;85375;-61
2022/12/19 02:42:28;;;;;;;81.30;45.35;;;21.10;31.70;;;;;;6062521;28;83070;-63
2022/12/19 02:45:31;;;;;;;83.70;48.13;;;21.10;31.50;;;;;;6071192;28;85145;-62
2022/12/19 02:48:31;;;;;;;75.03;44.85;;;21.10;31.40;;;;;;6077244;28;85626;-65
2022/12/19 02:51:33;;;;;;;74.28;43.65;;;21.10;31.50;;;;;;6095584;28;84761;-64
2022/12/19 02:54:33;;;;;;;72.25;43.67;;;21.00;32.20;;;;;;6083787;28;85612;-63
2022/12/19 02:57:34;;;;;;;67.38;40.67;;;21.10;32.10;;;;;;6076412;28;85938;-62
2022/12/19 03:00:35;;;;;;;70.43;41.05;;;21.00;32.90;;;;;;6043305;28;86789;-59
2022/12/19 03:03:35;;;;;;;71.00;41.92;;;21.10;32.90;;;;;;6081890;28;85480;-58
2022/12/19 03:06:36;;;;;;;71.18;41.65;;;21.10;33.00;;;;;;6091328;28;86290;-59
2022/12/19 03:09:38;;;;;;;69.40;40.05;;;21.10;32.70;;;;;;6090336;28;85673;-60
2022/12/19 03:12:38;;;;;;;64.85;38.55;;;21.10;32.60;;;;;;6089496;28;83287;-59
2022/12/19 03:15:39;;;;;;;65.03;39.20;;;21.00;32.60;;;;;;6104040;28;86070;-59
2022/12/19 03:18:40;;;;;;;65.50;39.78;;;21.00;32.60;;;;;;6093839;28;86280;-59
2022/12/19 03:21:40;;;;;;;60.50;36.92;;;21.00;32.50;;;;;;6084493;28;83542;-58
2022/12/19 03:24:41;;;;;;;61.83;37.22;;;21.00;32.60;;;;;;6087246;28;83821;-59
2022/12/19 03:27:42;;;;;;;62.75;36.53;;;21.00;32.50;;;;;;6077425;28;83660;-58
2022/12/19 03:30:42;;;;;;;60.90;36.05;;;21.00;32.60;;;;;;6076389;28;84184;-58
2022/12/19 03:33:43;;;;;;;55.80;35.70;;;21.00;32.50;;;;;;6076039;28;83496;-59
2022/12/19 03:36:43;;;;;;;59.80;36.70;;;21.00;32.50;;;;;;6077447;28;86463;-59
2022/12/19 03:39:43;;;;;;;61.42;38.22;;;21.00;32.40;;;;;;6062832;28;83932;-68
2022/12/19 03:46:03;;;;;;;61.55;37.95;;;20.90;32.30;;;;;;6065025;28;83477;-70
2022/12/19 03:49:04;;;;;;;62.40;36.50;;;20.90;32.30;;;;;;6075346;28;83294;-72
2022/12/19 03:52:04;;;;;;;62.05;37.88;;;20.90;32.30;;;;;;6066384;28;86321;-72
2022/12/19 03:55:05;;;;;;;64.15;38.28;;;20.90;32.30;;;;;;6064651;28;83490;-72
2022/12/19 03:58:05;;;;;;;57.53;36.92;;;20.90;32.20;;;;;;6074858;28;83569;-59
2022/12/19 04:01:06;;;;;;;60.97;38.88;;;20.90;32.30;;;;;;6076467;28;83577;-59
2022/12/19 04:04:06;;;;;;;63.00;36.13;;;20.90;32.20;;;;;;6081238;28;83335;-59
2022/12/19 04:07:07;;;;;;;60.30;36.58;;;20.90;32.70;;;;;;6085536;28;84366;-59
2022/12/19 04:10:07;;;;;;;57.78;35.65;;;20.90;32.60;;;;;;6085183;28;83333;-59
2022/12/19 04:13:08;;;;;;;60.72;35.28;;;20.90;32.30;;;;;;6076180;28;83961;-58
2022/12/19 04:16:08;;;;;;;60.17;35.55;;;21.00;33.20;;;;;;6064912;28;83098;-59
2022/12/19 04:19:09;;;;;;;63.42;38.08;;;21.00;32.40;;;;;;6056795;28;85769;-59
2022/12/19 04:22:09;;;;;;;61.47;38.38;;;21.10;32.10;;;;;;6067381;28;84915;-59
2022/12/19 04:25:10;;;;;;;67.85;38.92;;;21.10;31.40;;;;;;6054554;28;83615;-59
2022/12/19 04:28:10;;;;;;;68.30;40.65;;;21.20;31.00;;;;;;6053363;28;83155;-59
2022/12/19 04:31:11;;;;;;;72.65;41.17;;;21.30;30.30;;;;;;6066257;28;83506;-59
2022/12/19 04:34:11;;;;;;;69.57;42.63;;;21.40;30.00;;;;;;6056947;28;82970;-59
2022/12/19 04:37:12;;;;;;;70.43;41.75;;;21.50;30.20;;;;;;6061328;28;83124;-59
2022/12/19 04:40:12;;;;;;;71.70;43.40;;;21.60;29.70;;;;;;6074779;28;83854;-59
2022/12/19 04:43:13;;;;;;;67.25;40.30;;;21.60;29.60;;;;;;6075414;28;83164;-59
2022/12/19 04:46:14;;;;;;;69.88;41.17;;;21.60;29.20;;;;;;6075089;28;83580;-59
2022/12/19 04:49:14;;;;;;;71.85;43.50;;;21.70;29.30;;;;;;6061169;28;88788;-58
2022/12/19 04:52:15;;;;;;;73.68;42.88;;;21.70;29.10;;;;;;6051617;28;83497;-65
2022/12/19 04:55:15;;;;;;;67.22;41.08;;;21.70;28.90;;;;;;6063296;28;83333;-63
2022/12/19 04:58:16;;;;;;;71.38;41.25;;;21.80;29.10;;;;;;6069946;28;83180;-63
2022/12/19 05:01:17;;;;;;;65.20;40.90;;;21.80;29.00;;;;;;6069312;28;83105;-61
2022/12/19 05:04:17;;;;;;;66.45;39.80;;;21.80;29.20;;;;;;6068479;28;83770;-65
2022/12/19 05:07:18;;;;;;;68.78;41.25;;;21.80;29.40;;;;;;6077704;28;84409;-67
2022/12/19 05:10:18;;;;;;;70.32;41.67;;;21.90;29.30;;;;;;6074287;28;83707;-65
2022/12/19 05:13:19;;;;;;;69.43;41.20;;;21.90;29.30;;;;;;6071818;28;83977;-65
2022/12/19 05:16:19;;;;;;;64.97;39.30;;;21.90;29.40;;;;;;6072473;28;87552;-65
2022/12/19 05:19:20;;;;;;;61.92;39.33;;;21.90;29.40;;;;;;6064334;28;83299;-71
2022/12/19 05:22:20;;;;;;;61.53;37.38;;;21.90;29.50;;;;;;6058787;28;84493;-63
2022/12/19 05:25:21;;;;;;;69.97;40.83;;;22.00;29.40;;;;;;6059360;28;83750;-63
2022/12/19 05:28:21;;;;;;;58.97;37.67;;;22.00;29.40;;;;;;6065371;28;83148;-66
2022/12/19 05:31:22;;;;;;;68.78;40.15;;;22.00;29.10;;;;;;6046363;28;83960;-63
2022/12/19 05:34:22;;;;;;;62.85;39.40;;;22.10;29.10;;;;;;6050968;28;83861;-63
2022/12/19 05:37:23;;;;;;;67.13;39.25;;;22.10;29.30;;;;;;6072244;28;86314;-60
2022/12/19 05:40:24;;;;;;;65.82;38.75;;;22.20;29.40;;;;;;6060955;28;85276;-59
2022/12/19 05:43:24;;;;;;;64.40;38.92;;;22.20;29.30;;;;;;6066269;28;87622;-60
2022/12/19 05:46:26;;;;;;;66.53;37.33;;;22.20;29.30;;;;;;6065360;28;86256;-67
2022/12/19 05:49:26;;;;;;;61.97;36.03;;;22.20;29.60;;;;;;6076928;28;83277;-67
2022/12/19 05:52:26;;;;;;;56.90;34.95;;;22.30;29.40;;;;;;6064456;28;84041;-66
2022/12/19 05:55:27;;;;;;;56.60;34.72;;;22.40;29.70;;;;;;6075656;28;83665;-67
2022/12/19 05:58:28;;;;;;;64.00;36.13;;;22.40;29.50;;;;;;6079305;28;84584;-64
2022/12/19 06:01:29;;;;;;;48.38;29.02;;;22.40;29.50;;;;;;6072480;28;84680;-62
2022/12/19 06:04:29;;;;;;;45.03;25.58;;;22.40;29.50;;;;;;6079682;28;83435;-62
2022/12/19 06:07:30;;;;;;;38.30;24.25;;;22.40;29.80;;;;;;6070449;28;83489;-60
2022/12/19 06:10:31;;;;;;;33.13;20.20;;;22.40;30.00;;;;;;6066879;28;83353;-66
2022/12/19 06:13:31;;;;;;;31.67;19.33;;;22.40;30.30;;;;;;6074786;28;84324;-64
2022/12/19 06:16:32;;;;;;;32.65;18.35;;;22.40;31.10;;;;;;6078023;28;83489;-64
2022/12/19 06:19:32;;;;;;;33.72;19.08;;;22.40;31.90;;;;;;6059567;28;82771;-63
2022/12/19 06:22:33;;;;;;;28.08;17.50;;;22.40;32.90;;;;;;6060506;28;87162;-60
2022/12/19 06:25:34;;;;;;;28.67;17.52;;;22.40;33.60;;;;;;6050189;28;83498;-58
2022/12/19 06:28:34;;;;;;;31.00;18.52;;;22.30;33.70;;;;;;6047432;28;83503;-57
2022/12/19 06:31:35;;;;;;;30.98;17.58;;;22.30;34.10;;;;;;6055554;28;83523;-58
2022/12/19 06:34:35;;;;;;;25.60;16.83;;;22.30;34.60;;;;;;6073132;28;83754;-58
2022/12/19 06:37:36;;;;;;;25.83;16.00;;;22.20;34.60;;;;;;6063719;28;83834;-57
2022/12/19 06:43:56;;;;;;;27.15;16.38;;;22.10;35.30;;;;;;6071286;28;87718;-60
2022/12/19 06:46:56;;;;;;;25.63;16.13;;;22.10;35.60;;;;;;6070441;28;83883;-60
2022/12/19 06:49:56;;;;;;;24.05;14.77;;;22.10;36.20;;;;;;6059723;28;82818;-63
2022/12/19 06:52:57;;;;;;;25.38;14.82;;;22.00;36.30;;;;;;6039480;28;83883;-57
2022/12/19 06:55:58;;;;;;;23.30;15.10;;;22.10;36.70;;;;;;5950321;28;88011;-58
2022/12/19 06:58:59;;;;;;;22.70;14.90;;;22.00;36.80;;;;;;5867519;28;88600;-68
2022/12/19 07:01:59;;;;;;;29.52;16.42;;;22.00;36.80;;;;;;6049138;28;83068;-64
2022/12/19 07:05:00;;;;;;;23.90;14.45;;;22.00;36.80;;;;;;6046911;28;86241;-66
2022/12/19 07:08:00;;;;;;;29.60;16.00;;;21.80;36.90;;;;;;6058880;28;83873;-68
2022/12/19 07:11:01;;;;;;;26.95;15.10;;;21.90;37.20;;;;;;6068981;28;84533;-68
2022/12/19 07:14:01;;;;;;;28.17;16.75;;;21.80;37.50;;;;;;6054040;28;88346;-68
2022/12/19 07:17:02;;;;;;;26.60;15.75;;;21.80;37.30;;;;;;6069058;28;83105;-60
2022/12/19 07:20:03;;;;;;;24.52;15.13;;;21.80;37.40;;;;;;6071300;28;83350;-68
2022/12/19 07:23:04;;;;;;;26.08;16.42;;;21.80;37.40;;;;;;6070198;28;84049;-64
2022/12/19 07:26:04;;;;;;;28.25;16.23;;;21.80;37.40;;;;;;6068879;28;83709;-68
2022/12/19 07:29:05;;;;;;;25.90;16.42;;;21.80;37.40;;;;;;6075271;28;84847;-73
2022/12/19 07:32:05;;;;;;;25.27;15.60;;;21.70;37.50;;;;;;6067304;28;83864;-71
2022/12/19 07:35:06;;;;;;;28.10;16.17;;;21.70;38.00;;;;;;6047710;28;83093;-66
2022/12/19 07:38:06;;;;;;;26.02;15.45;;;21.70;38.20;;;;;;6048080;28;83671;-66
2022/12/19 07:41:07;;;;;;;26.70;16.40;;;21.70;38.30;;;;;;6064275;28;86592;-68
2022/12/19 07:44:08;;;;;;;26.80;15.43;;;21.70;38.10;;;;;;6049566;28;84114;-70
2022/12/19 07:47:08;;;;;;;25.15;14.90;;;21.70;38.00;;;;;;6069080;28;87488;-68
2022/12/19 07:50:09;;;;;;;24.95;15.40;;;21.70;38.20;;;;;;6060657;28;84439;-68
2022/12/19 07:53:09;;;;;;;26.90;15.93;;;21.60;38.30;;;;;;6057013;28;83229;-64
2022/12/19 07:56:10;;;;;;;23.95;14.20;;;21.60;38.20;;;;;;6061750;28;84461;-65
2022/12/19 07:59:11;;;;;;;23.98;14.38;;;21.60;38.60;;;;;;6067951;28;83518;-67
2022/12/19 08:02:12;;;;;;;23.35;13.75;;;21.70;38.50;;;;;;6057794;28;84524;-71
2022/12/19 08:05:12;;;;;;;24.23;14.70;;;21.70;38.40;;;;;;6064239;28;83059;-62
2022/12/19 08:08:13;;;;;;;22.58;14.25;;;21.70;38.30;;;;;;6055704;28;83218;-64
2022/12/19 08:11:13;;;;;;;23.48;14.52;;;21.60;38.20;;;;;;6050878;28;83633;-65
2022/12/19 08:14:14;;;;;;;20.10;13.07;;;21.60;38.30;;;;;;6067681;28;86625;-62
2022/12/19 08:17:14;;;;;;;35.70;15.25;;;21.70;38.70;;;;;;6029116;28;84899;-62
2022/12/19 08:20:15;;;;;;;22.63;14.05;;;21.60;38.20;;;;;;6064603;28;89997;-59
2022/12/19 08:23:15;;;;;;;23.70;14.40;;;21.70;38.40;;;;;;6047566;28;84668;-60
2022/12/19 08:26:16;;;;;;;19.95;12.82;;;21.70;38.40;;;;;;6052552;28;83449;-61
2022/12/19 08:29:16;;;;;;;19.02;12.63;;;21.80;38.40;;;;;;6052178;28;83729;-61
2022/12/19 08:32:17;;;;;;;23.42;14.57;;;22.00;38.20;;;;;;6047946;28;83256;-69
2022/12/19 08:35:17;;;;;;;23.00;13.88;;;22.10;37.60;;;;;;6052481;28;84107;-62
2022/12/19 08:38:18;;;;;;;26.50;16.52;;;22.20;37.60;;;;;;6066076;28;87875;-69
2022/12/19 08:41:18;;;;;;;26.00;15.68;;;22.30;37.30;;;;;;6042676;28;83440;-73
2022/12/19 08:44:19;;;;;;;26.83;15.85;;;22.40;37.30;;;;;;6065733;28;84703;-67
2022/12/19 08:47:19;;;;;;;23.90;15.20;;;22.50;37.10;;;;;;6085714;28;86415;-68
2022/12/19 08:50:20;;;;;;;28.20;15.80;;;22.60;36.90;;;;;;6086427;28;84136;-66
2022/12/19 08:53:20;;;;;;;25.40;16.05;;;22.70;36.70;;;;;;6063124;28;83418;-67
2022/12/19 08:56:22;;;;;;;24.10;15.85;;;22.80;36.50;;;;;;6064483;28;84862;-66
2022/12/19 08:59:23;;;;;;;26.85;17.00;;;22.90;36.10;;;;;;6058778;28;84051;-67
2022/12/19 09:02:23;;;;;;;25.70;16.25;;;23.00;35.80;;;;;;6057845;28;88600;-69
2022/12/19 09:05:23;;;;;;;28.30;16.95;;;23.10;35.60;;;;;;6054021;28;86530;-69
2022/12/19 09:08:24;;;;;;;27.85;16.80;;;23.10;35.40;;;;;;6047029;28;83534;-67
2022/12/19 09:11:25;;;;;;;25.90;16.98;;;23.20;34.90;;;;;;6080144;28;83300;-65
2022/12/19 09:14:25;;;;;;;27.17;17.25;;;23.30;34.50;;;;;;6098689;28;84116;-66
2022/12/19 09:17:26;;;;;;;29.23;17.75;;;23.40;34.20;;;;;;6077082;28;86330;-68
2022/12/19 09:20:26;;;;;;;30.55;17.08;;;23.50;34.10;;;;;;6080500;28;87237;-65
2022/12/19 09:23:27;;;;;;;29.77;16.50;;;23.60;34.30;;;;;;6089330;28;90122;-67
2022/12/19 09:26:27;;;;;;;27.52;16.75;;;23.70;33.80;;;;;;6086961;28;83752;-65
2022/12/19 09:29:28;;;;;;;27.48;17.13;;;23.70;33.50;;;;;;6079078;28;86902;-63
2022/12/19 09:32:29;;;;;;;24.38;16.65;;;23.70;33.60;;;;;;6086312;28;83928;-61
2022/12/19 09:35:29;;;;;;;27.20;17.27;;;23.80;33.60;;;;;;6080321;28;83315;-62
2022/12/19 09:38:30;;;;;;;28.25;17.50;;;23.80;33.50;;;;;;6081977;28;84836;-61
2022/12/19 09:41:30;;;;;;;25.35;17.20;;;23.80;33.10;;;;;;6065412;28;83276;-64
2022/12/19 09:44:31;;;;;;;28.20;17.05;;;23.80;33.00;;;;;;6055178;28;87644;-61
2022/12/19 09:47:31;;;;;;;30.63;18.65;;;23.90;32.90;;;;;;6057204;28;84250;-62
2022/12/19 09:50:32;;;;;;;27.55;17.83;;;23.80;32.30;;;;;;6056101;28;83488;-61
2022/12/19 09:53:32;;;;;;;29.52;17.75;;;23.90;32.50;;;;;;6056837;28;83457;-60
2022/12/19 09:56:33;;;;;;;24.02;16.30;;;23.80;32.70;;;;;;6060099;28;83549;-61
2022/12/19 09:59:33;;;;;;;26.23;15.90;;;23.80;33.00;;;;;;6075998;28;87879;-61
2022/12/19 10:02:34;;;;;;;23.30;15.40;;;23.90;33.20;;;;;;6061971;28;83886;-61
2022/12/19 10:05:34;;;;;;;24.27;16.05;;;23.80;33.20;;;;;;6082961;28;84860;-60
2022/12/19 10:08:35;;;;;;;24.13;15.88;;;23.90;33.90;;;;;;6063822;28;83200;-61
2022/12/19 10:11:35;;;;;;;23.45;16.17;;;23.80;34.30;;;;;;6069500;28;85599;-63
2022/12/19 10:14:36;;;;;;;24.63;15.40;;;23.90;34.60;;;;;;6066731;28;83209;-61
2022/12/19 10:17:36;;;;;;;23.50;15.73;;;23.90;34.80;;;;;;6071341;28;83596;-61
2022/12/19 10:20:37;;;;;;;23.77;15.80;;;23.80;34.80;;;;;;6072546;28;88275;-62
2022/12/19 10:23:38;;;;;;;24.48;14.93;;;23.90;35.20;;;;;;6069694;28;85699;-60
2022/12/19 10:26:38;;;;;;;24.50;15.30;;;23.90;35.30;;;;;;6063860;28;83543;-61
2022/12/19 10:29:38;;;;;;;23.55;14.90;;;23.90;35.50;;;;;;6075443;28;83381;-59
2022/12/19 10:32:39;;;;;;;22.73;14.55;;;23.90;35.60;;;;;;6064946;28;85850;-59
2022/12/19 10:35:41;;;;;;;23.23;14.68;;;23.90;35.90;;;;;;6064351;28;83448;-61
2022/12/19 10:38:42;;;;;;;23.40;14.98;;;23.80;36.00;;;;;;6096854;28;84254;-60
2022/12/19 10:41:42;;;;;;;22.83;14.85;;;23.80;36.10;;;;;;6059347;28;83372;-72
2022/12/19 10:44:43;;;;;;;21.08;14.90;;;23.70;36.10;;;;;;6062870;28;84572;-71
2022/12/19 10:47:43;;;;;;;23.40;16.17;;;23.70;36.30;;;;;;6077697;28;84599;-70
2022/12/19 10:50:44;;;;;;;24.33;15.27;;;23.60;36.40;;;;;;6064691;28;83246;-69
2022/12/19 10:53:45;;;;;;;21.52;13.80;;;23.50;36.50;;;;;;6060574;28;83674;-70
2022/12/19 10:56:45;;;;;;;24.27;16.02;;;23.40;36.80;;;;;;6056588;28;91052;-70
2022/12/19 10:59:46;;;;;;;21.77;13.77;;;23.30;36.80;;;;;;6054354;28;83435;-73
2022/12/19 11:02:46;;;;;;;22.25;13.88;;;23.30;37.20;;;;;;6051878;28;83903;-71
2022/12/19 11:05:47;;;;;;;23.77;14.30;;;23.30;37.50;;;;;;6062230;28;88510;-73
2022/12/19 11:08:47;;;;;;;20.23;13.02;;;23.30;37.90;;;;;;6069920;28;83067;-71
2022/12/19 11:11:48;;;;;;;18.20;12.40;;;23.30;37.90;;;;;;6075117;28;83877;-72
2022/12/19 11:14:48;;;;;;;23.15;13.98;;;23.30;38.10;;;;;;6063605;28;83187;-73
2022/12/19 11:17:49;;;;;;;20.52;13.43;;;23.40;38.40;;;;;;6070959;28;83401;-66
2022/12/19 11:20:49;;;;;;;22.85;14.00;;;23.50;38.50;;;;;;6064584;28;83408;-66
2022/12/19 11:23:50;;;;;;;21.60;13.70;;;23.50;38.30;;;;;;6052914;28;83313;-65
2022/12/19 11:26:51;;;;;;;22.50;15.13;;;23.50;38.30;;;;;;6072638;28;83666;-64
2022/12/19 11:29:52;;;;;;;23.27;15.38;;;23.50;38.10;;;;;;6092490;28;89108;-64
2022/12/19 11:32:52;;;;;;;22.17;14.90;;;23.50;38.10;;;;;;6078293;28;84154;-64
2022/12/19 11:35:53;;;;;;;20.52;13.68;;;23.60;38.20;;;;;;6073613;28;83984;-60
2022/12/19 11:38:54;;;;;;;35.83;15.18;;;23.60;38.20;;;;;;6083053;28;84201;-59
2022/12/19 11:41:54;;;;;;;22.73;14.88;;;23.60;38.50;;;;;;6073892;28;83611;-60
2022/12/19 11:44:55;;;;;;;21.65;14.48;;;23.60;38.30;;;;;;6064309;28;83867;-61
2022/12/19 11:47:55;;;;;;;21.40;15.02;;;23.60;38.60;;;;;;6082030;28;86890;-60
2022/12/19 11:50:56;;;;;;;25.63;15.95;;;23.60;38.40;;;;;;6088718;28;85446;-61
2022/12/19 11:53:56;;;;;;;25.42;16.40;;;23.60;38.60;;;;;;6091787;28;83748;-62
2022/12/19 11:56:57;;;;;;;30.92;16.98;;;23.60;38.70;;;;;;6085138;28;87886;-58
2022/12/19 11:59:57;;;;;;;26.90;17.27;;;23.70;38.70;;;;;;6090349;28;84567;-62
2022/12/19 12:02:58;;;;;;;26.88;17.08;;;23.70;38.80;;;;;;6087851;28;83215;-61
2022/12/19 12:05:58;;;;;;;28.23;17.58;;;23.70;39.00;;;;;;6087905;28;86371;-61
2022/12/19 12:08:59;;;;;;;30.52;18.80;;;23.70;39.10;;;;;;6091775;28;83925;-60
2022/12/19 12:11:59;;;;;;;25.58;16.90;;;23.70;39.20;;;;;;6092164;28;83330;-62
2022/12/19 12:15:00;;;;;;;25.42;16.17;;;23.70;39.50;;;;;;6092288;28;85333;-65
2022/12/19 12:18:00;;;;;;;28.35;18.40;;;23.70;39.80;;;;;;6094969;28;83033;-63
2022/12/19 12:21:01;;;;;;;26.58;16.00;;;23.70;40.10;;;;;;6093133;28;84495;-62
2022/12/19 12:24:02;;;;;;;28.67;17.23;;;23.80;40.20;;;;;;6099958;28;88674;-63
2022/12/19 12:27:02;;;;;;;24.88;16.88;;;23.80;40.30;;;;;;6090708;28;83824;-63
2022/12/19 12:30:03;;;;;;;25.02;16.75;;;23.80;40.30;;;;;;6077252;28;83712;-63
2022/12/19 12:33:03;;;;;;;26.17;17.38;;;23.70;40.50;;;;;;6066032;28;84614;-62
2022/12/19 12:36:04;;;;;;;27.10;16.95;;;23.80;40.60;;;;;;6071427;28;84860;-62
2022/12/19 12:39:04;;;;;;;28.42;17.55;;;23.70;40.70;;;;;;6091781;28;83808;-60
2022/12/19 12:42:05;;;;;;;27.35;17.55;;;23.70;40.70;;;;;;6078426;28;86325;-61
2022/12/19 12:45:05;;;;;;;28.58;18.27;;;23.70;40.60;;;;;;6062557;28;83165;-61
2022/12/19 12:48:06;;;;;;;31.75;20.75;;;23.70;40.70;;;;;;6062409;28;83565;-61
2022/12/19 12:51:06;;;;;;;27.90;18.90;;;23.70;40.10;;;;;;6063615;28;83455;-62
2022/12/19 12:54:08;;;;;;;30.83;18.73;;;23.70;40.00;;;;;;6070132;28;84628;-63
2022/12/19 12:57:08;;;;;;;28.77;18.23;;;23.60;40.00;;;;;;6071340;28;83552;-68
2022/12/19 13:00:09;;;;;;;31.55;19.25;;;23.60;39.80;;;;;;6051713;28;83237;-63
2022/12/19 13:03:09;;;;;;;30.98;19.13;;;23.50;39.50;;;;;;6051398;28;83788;-63
2022/12/19 13:06:10;;;;;;;28.95;18.27;;;23.50;40.10;;;;;;6049042;28;83409;-63
2022/12/19 13:09:10;;;;;;;28.75;18.08;;;23.40;40.30;;;;;;6053848;28;83314;-66
2022/12/19 13:15:31;;;;;;;27.38;17.80;;;23.40;40.40;;;;;;6080532;28;86385;-70
2022/12/19 13:18:31;;;;;;;25.52;16.02;;;23.30;41.00;;;;;;6094589;28;83387;-71
2022/12/19 13:21:32;;;;;;;25.90;14.82;;;23.30;41.90;;;;;;6090462;28;83746;-64
2022/12/19 13:24:32;;;;;;;30.60;17.17;;;23.40;42.20;;;;;;6072429;28;85913;-65
2022/12/19 13:27:33;;;;;;;24.10;16.67;;;23.40;41.70;;;;;;6085076;28;82908;-67
2022/12/19 13:30:34;;;;;;;29.63;18.02;;;23.40;41.30;;;;;;6084384;28;93050;-62
2022/12/19 13:33:34;;;;;;;24.95;16.60;;;23.50;41.20;;;;;;6093147;28;85617;-62
2022/12/19 13:36:35;;;;;;;28.90;18.13;;;23.50;41.40;;;;;;6077897;28;83229;-62
2022/12/19 13:39:35;;;;;;;27.50;17.88;;;23.50;41.00;;;;;;6063121;28;83235;-61
2022/12/19 13:45:55;;;;;;;31.40;19.52;;;23.60;40.90;;;;;;6059928;28;88874;-62
2022/12/19 13:48:55;;;;;;;29.08;18.95;;;23.60;40.90;;;;;;6096752;28;83989;-61
2022/12/19 13:51:56;;;;;;;26.85;18.02;;;23.70;40.90;;;;;;6085200;28;83591;-63
2022/12/19 13:54:57;;;;;;;31.65;18.95;;;23.70;40.50;;;;;;6081836;28;83348;-62
2022/12/19 13:57:58;;;;;;;29.35;19.70;;;23.70;40.10;;;;;;6066359;28;83378;-60
2022/12/19 14:00:58;;;;;;;33.58;20.08;;;23.70;40.00;;;;;;6058167;28;82989;-56
2022/12/19 14:03:59;;;;;;;29.05;18.40;;;23.70;40.00;;;;;;6049750;28;87457;-64
2022/12/19 14:07:00;;;;;;;31.27;19.95;;;23.60;40.50;;;;;;6061389;28;82825;-65
2022/12/19 14:10:00;;;;;;;33.38;21.88;;;23.60;40.10;;;;;;6085201;28;86825;-64
2022/12/19 14:16:20;;;;;;;34.72;22.45;;;23.50;39.80;;;;;;6096899;28;90555;-65
2022/12/19 14:19:21;;;;;;;36.38;23.30;;;23.40;39.70;;;;;;6091411;28;83994;-66
2022/12/19 14:22:21;;;;;;;36.33;21.88;;;23.30;39.70;;;;;;6073784;28;83160;-65
2022/12/19 14:25:22;;;;;;;35.38;22.67;;;23.20;39.80;;;;;;6053535;28;85932;-69
2022/12/19 14:28:22;;;;;;;36.03;22.80;;;23.10;40.20;;;;;;6058001;28;83884;-70
2022/12/19 14:31:23;;;;;;;36.67;22.98;;;23.10;40.10;;;;;;6056101;28;83118;-70
2022/12/19 14:34:23;;;;;;;35.28;21.90;;;23.00;40.20;;;;;;6071743;28;84711;-69
2022/12/19 14:37:24;;;;;;;35.42;23.70;;;23.00;40.70;;;;;;6078701;28;84410;-68
2022/12/19 14:40:24;;;;;;;38.85;23.40;;;22.90;40.70;;;;;;6089292;28;84000;-67
2022/12/19 14:43:42;;;;;;;34.55;22.33;;;22.90;40.90;;;;;;6074559;28;85000;-71
2022/12/19 14:46:42;;;;;;;34.08;21.98;;;22.90;40.90;;;;;;6058632;28;83277;-72
2022/12/19 14:49:43;;;;;;;38.20;22.55;;;22.80;41.00;;;;;;6067268;28;84066;-67
2022/12/19 14:52:45;;;;;;;36.63;22.90;;;22.70;41.20;;;;;;6059833;28;88105;-70
2022/12/19 14:55:47;;;;;;;36.45;22.48;;;22.70;41.40;;;;;;6088599;28;83170;-72
2022/12/19 14:58:47;;;;;;;35.42;21.92;;;22.70;41.60;;;;;;6098584;28;83231;-64
2022/12/19 15:01:48;;;;;;;34.15;21.17;;;22.60;41.50;;;;;;6087792;28;85793;-63
2022/12/19 15:04:48;;;;;;;36.08;21.45;;;22.60;41.80;;;;;;6085420;28;83309;-66
2022/12/19 15:07:49;;;;;;;30.40;20.13;;;22.60;42.10;;;;;;6089502;28;85039;-62
2022/12/19 15:10:49;;;;;;;31.40;20.85;;;22.50;42.40;;;;;;6091263;28;83124;-63
2022/12/19 15:13:50;;;;;;;37.20;22.58;;;22.50;42.30;;;;;;6084780;28;83882;-63
2022/12/19 15:16:50;;;;;;;34.58;22.05;;;22.50;42.60;;;;;;6081891;28;87400;-69
2022/12/19 15:19:51;;;;;;;35.25;21.48;;;22.50;42.70;;;;;;6087092;28;84471;-66
2022/12/19 15:22:51;;;;;;;43.95;22.17;;;22.50;43.00;;;;;;6095661;28;83755;-64
2022/12/19 15:25:52;;;;;;;39.13;22.55;;;22.50;43.00;;;;;;6083016;28;84846;-68
2022/12/19 15:28:52;;;;;;;38.75;21.50;;;22.40;43.00;;;;;;6088221;28;85131;-68
2022/12/19 15:31:53;;;;;;;31.85;20.15;;;22.40;43.40;;;;;;6088114;28;83432;-70
2022/12/19 15:34:54;;;;;;;34.35;21.52;;;22.40;43.20;;;;;;6088095;28;83248;-65
2022/12/19 15:37:54;;;;;;;31.33;21.33;;;22.40;43.10;;;;;;6096848;28;83673;-64